ADDS METAR Data INFO
IDs: Format: Raw Decoded Include TAF

Data at: 1056 UTC 20 Sep 2017

KBWD 201035Z AUTO 16006KT 10SM CLR 23/22 A2987 RMK AO2
KBWD 201015Z AUTO 16006KT 10SM CLR 23/22 A2987 RMK AO2
KBWD 200955Z AUTO 16006KT 9SM CLR 23/22 A2987 RMK AO2
KBWD 200935Z AUTO 15006KT 9SM CLR 23/22 A2987 RMK AO2
KBWD 200915Z AUTO 15007KT 9SM CLR 23/22 A2986 RMK AO2
KBWD 200855Z AUTO 16006KT 10SM CLR 23/22 A2986 RMK AO2
KBWD 200835Z AUTO 15007KT 10SM CLR 24/22 A2986 RMK AO2
KBWD 200815Z AUTO 15007KT 10SM CLR 24/22 A2986 RMK AO2
KBWD 200755Z AUTO 16008G15KT 10SM FEW026 24/21 A2987 RMK AO2
KBWD 200735Z AUTO 15009KT 10SM CLR 24/21 A2986 RMK AO2
KBWD 200715Z AUTO 15010KT 10SM CLR 24/21 A2986 RMK AO2
KBWD 200655Z AUTO 15009KT 10SM CLR 24/21 A2987 RMK AO2
KBWD 200635Z AUTO 15008KT 10SM CLR 24/21 A2987 RMK AO2
KBWD 200615Z AUTO 15007KT 10SM CLR 24/20 A2986 RMK AO2
KBWD 200555Z AUTO 15008KT 10SM CLR 23/20 A2986 RMK AO2
KBWD 200535Z AUTO 14003KT 10SM FEW035 21/18 A2987 RMK AO2
KBWD 200515Z AUTO 00000KT 10SM BKN030 BKN036 20/18 A2987 RMK AO2
KBWD 200455Z AUTO 22004KT 10SM BKN032 OVC039 20/17 A2987 RMK AO2
KBWD 200435Z AUTO 00000KT 10SM BKN032 20/17 A2987 RMK AO2
KBWD 200415Z AUTO 00000KT 10SM SCT032 20/17 A2988 RMK AO2
KBWD 200355Z AUTO 00000KT 10SM FEW034 21/18 A2988 RMK AO2
KBWD 200335Z AUTO 00000KT 10SM CLR 22/18 A2988 RMK AO2
KBWD 200315Z AUTO 00000KT 7SM CLR 22/18 A2987 RMK AO2
KBWD 200255Z AUTO 20003KT 10SM CLR 21/17 A2986 RMK AO2
KBWD 200235Z AUTO 00000KT 10SM CLR 22/18 A2984 RMK AO2
KBWD 200215Z AUTO 00000KT 10SM CLR 22/18 A2982 RMK AO2
KBWD 200155Z AUTO 09003KT 10SM CLR 23/18 A2981 RMK AO2
KBWD 200135Z AUTO 15004KT 10SM CLR 23/18 A2981 RMK AO2
KBWD 200115Z AUTO 19004KT 10SM CLR 24/18 A2983 RMK AO2
KBWD 200055Z AUTO 23005KT 10SM CLR 24/18 A2983 RMK AO2
KBWD 200035Z AUTO 20008KT 10SM CLR 24/18 A2984 RMK AO2
KBWD 200015Z AUTO 21008KT 10SM FEW040 24/18 A2984 RMK AO2
KBWD 192355Z AUTO 19009KT 7SM -RA FEW030 SCT042 BKN065 23/18 A2984 RMK AO2
KBWD 192335Z AUTO 20011G15KT 10SM SCT060 SCT095 26/16 A2984 RMK AO2
KBWD 192315Z AUTO 17013G18KT 140V200 10SM CLR 27/16 A2982 RMK AO2
KBWD 192255Z AUTO 15013G25KT 10SM CLR 27/15 A2982 RMK AO2
KBWD 192235Z AUTO 16017G22KT 10SM CLR 28/15 A2982 RMK AO2
KBWD 192215Z AUTO 16013G23KT 10SM CLR 30/15 A2980 RMK AO2
KBWD 192155Z AUTO 19016G22KT 10SM CLR 32/17 A2981 RMK AO2
KBWD 192135Z AUTO 17010G16KT 10SM CLR 33/19 A2979 RMK AO2
KBWD 192115Z AUTO 18011G19KT 150V210 9SM CLR 31/19 A2980 RMK AO2
KBWD 192055Z AUTO 19009KT 10SM CLR 34/17 A2982 RMK AO2
KBWD 192035Z AUTO 18008KT 10SM -RA FEW075 35/17 A2983 RMK AO2
KBWD 192015Z AUTO 20011G21KT 150V210 10SM -RA FEW075 35/17 A2984 RMK AO2
KBWD 191955Z AUTO 19009G18KT 10SM -RA CLR 37/17 A2985 RMK AO2
KBWD 191935Z AUTO 16012G17KT 10SM FEW065 35/17 A2986 RMK AO2
KBWD 191915Z AUTO 20009G17KT 170V230 10SM SCT065 SCT080 35/18 A2987 RMK AO2
KBWD 191855Z AUTO 21013G18KT 10SM FEW065 34/18 A2988 RMK AO2
KBWD 191835Z AUTO 16010G17KT 10SM -RA FEW055 34/19 A2989 RMK AO2
KBWD 191815Z AUTO 22010G16KT 10SM -RA FEW055 35/19 A2990 RMK AO2
KBWD 191755Z AUTO 17011G15KT 160V220 10SM SCT049 35/19 A2991 RMK AO2
KBWD 191735Z AUTO 18014G19KT 10SM SCT049 34/19 A2992 RMK AO2
KBWD 191715Z AUTO 21015G18KT 10SM FEW047 34/20 A2993 RMK AO2
KBWD 191655Z AUTO 18009G16KT 160V230 10SM CLR 33/20 A2994 RMK AO2
KBWD 191635Z AUTO 21014KT 10SM CLR 33/20 A2994 RMK AO2
KBWD 191615Z AUTO 20014G18KT 10SM CLR 32/20 A2995 RMK AO2
KBWD 191555Z AUTO 18011G16KT 10SM CLR 31/20 A2995 RMK AO2
KBWD 191535Z AUTO 18011KT 10SM CLR 30/21 A2995 RMK AO2
KBWD 191515Z AUTO 20013KT 10SM CLR 30/21 A2996 RMK AO2
KBWD 191455Z AUTO 19010G15KT 10SM CLR 29/21 A2996 RMK AO2
KBWD 191435Z AUTO 19010G15KT 10SM CLR 27/21 A2996 RMK AO2
KBWD 191415Z AUTO 18009KT 10SM CLR 27/21 A2995 RMK AO2
KBWD 191355Z AUTO 18007KT 9SM CLR 25/21 A2996 RMK AO2
KBWD 191335Z AUTO 16005KT 9SM CLR 25/22 A2995 RMK AO2
KBWD 191315Z AUTO 17007KT 10SM CLR 24/22 A2995 RMK AO2
KBWD 191255Z AUTO 16004KT 9SM CLR 23/22 A2994 RMK AO2
KBWD 191235Z AUTO 16004KT 9SM CLR 23/22 A2994 RMK AO2
KBWD 191215Z AUTO 15006KT 10SM CLR 23/22 A2993 RMK AO2
KBWD 191155Z AUTO 15006KT 10SM CLR 23/22 A2994 RMK AO2
KBWD 191135Z AUTO 15006KT 10SM CLR 23/22 A2993 RMK AO2
KBWD 191115Z AUTO 14006KT 10SM CLR 23/22 A2993 RMK AO2
KBWD 191055Z AUTO 15006KT 10SM CLR 23/22 A2993 RMK AO2
KBWD 191035Z AUTO 15008KT 10SM FEW037 23/22 A2993 RMK AO2
KBWD 191015Z AUTO 15006KT 10SM FEW037 23/22 A2992 RMK AO2
KBWD 190955Z AUTO 16005KT 10SM FEW044 24/22 A2992 RMK AO2
KBWD 190935Z AUTO 16005KT 10SM FEW034 SCT046 24/22 A2992 RMK AO2
KBWD 190915Z AUTO 16006KT 10SM FEW028 FEW037 SCT047 24/21 A2992 RMK AO2
KBWD 190855Z AUTO 15005KT 10SM FEW028 FEW036 SCT050 24/21 A2992 RMK AO2
KBWD 190835Z AUTO 15006KT 10SM FEW037 FEW050 24/21 A2992 RMK AO2
KBWD 190815Z AUTO 15006KT 10SM FEW050 24/21 A2992 RMK AO2
KBWD 190755Z AUTO 15006KT 10SM CLR 25/21 A2992 RMK AO2
KBWD 190735Z AUTO 16006KT 10SM FEW036 25/21 A2992 RMK AO2
KBWD 190715Z AUTO 16006KT 10SM FEW036 SCT045 25/20 A2993 RMK AO2
KBWD 190655Z AUTO 16007KT 10SM FEW034 SCT045 25/20 A2993 RMK AO2
KBWD 190635Z AUTO 16006KT 10SM FEW035 FEW042 25/20 A2992 RMK AO2
KBWD 190615Z AUTO 15007KT 10SM FEW045 25/19 A2993 RMK AO2
KBWD 190555Z AUTO 15006KT 10SM CLR 26/19 A2993 RMK AO2
KBWD 190535Z AUTO 15007KT 10SM FEW044 27/19 A2994 RMK AO2
KBWD 190515Z AUTO 15007KT 10SM CLR 27/19 A2994 RMK AO2
KBWD 190455Z AUTO 15008G14KT 10SM FEW031 27/18 A2994 RMK AO2
KBWD 190435Z AUTO 14006KT 10SM CLR 26/17 A2994 RMK AO2
KBWD 190415Z AUTO 13007KT 10SM CLR 26/17 A2994 RMK AO2
KBWD 190355Z AUTO 14006KT 10SM CLR 27/16 A2994 RMK AO2
KBWD 190335Z AUTO 13006KT 10SM FEW043 27/16 A2995 RMK AO2
KBWD 190315Z AUTO 13006KT 10SM CLR 28/16 A2994 RMK AO2
KBWD 190255Z AUTO 13008KT 10SM CLR 28/16 A2993 RMK AO2
KBWD 190235Z AUTO 12009KT 10SM CLR 28/16 A2992 RMK AO2
KBWD 190215Z AUTO 12007KT 10SM CLR 29/15 A2992 RMK AO2
KBWD 190155Z AUTO 12008KT 10SM CLR 29/15 A2992 RMK AO2
KBWD 190135Z AUTO 10005KT 10SM CLR 28/15 A2991 RMK AO2
KBWD 190115Z AUTO 12005KT 10SM CLR 28/15 A2990 RMK AO2
KBWD 190055Z AUTO 10005KT 10SM CLR 29/14 A2990 RMK AO2
KBWD 190035Z AUTO 12004KT 10SM CLR 30/14 A2990 RMK AO2
KBWD 190015Z AUTO 14005KT 10SM CLR 32/14 A2990 RMK AO2
KBWD 182355Z AUTO 17004KT 10SM -RA CLR 33/14 A2990 RMK AO2 P0003
KBWD 182335Z AUTO 15005KT 10SM -RA CLR 34/14 A2990 RMK AO2 P0002
KBWD 182315Z AUTO 19005KT 10SM -RA CLR 34/14 A2989 RMK AO2 P0001